sensor_id;sensor_type;location;lat;lon;timestamp;temperature;humidity
2012;DHT22;1009;51.436;6.972;2024-03-17T00:02:01;7.40;99.90
2012;DHT22;1009;51.436;6.972;2024-03-17T00:04:28;7.40;99.90
2012;DHT22;1009;51.436;6.972;2024-03-17T00:06:55;7.40;99.90
2012;DHT22;1009;51.436;6.972;2024-03-17T00:09:21;7.40;99.90
2012;DHT22;1009;51.436;6.972;2024-03-17T00:11:47;7.40;99.90
2012;DHT22;1009;51.436;6.972;2024-03-17T00:14:14;7.40;99.90
2012;DHT22;1009;51.436;6.972;2024-03-17T00:16:40;7.30;99.90
2012;DHT22;1009;51.436;6.972;2024-03-17T00:19:06;7.30;99.90
2012;DHT22;1009;51.436;6.972;2024-03-17T00:21:32;7.30;99.90
2012;DHT22;1009;51.436;6.972;2024-03-17T00:24:00;7.20;99.90
2012;DHT22;1009;51.436;6.972;2024-03-17T00:26:28;7.30;99.90
2012;DHT22;1009;51.436;6.972;2024-03-17T00:28:54;7.30;99.90
2012;DHT22;1009;51.436;6.972;2024-03-17T00:31:20;7.30;99.90
2012;DHT22;1009;51.436;6.972;2024-03-17T00:33:47;7.30;99.90
2012;DHT22;1009;51.436;6.972;2024-03-17T00:36:13;7.30;99.90
2012;DHT22;1009;51.436;6.972;2024-03-17T00:38:40;7.40;99.90
2012;DHT22;1009;51.436;6.972;2024-03-17T00:41:07;7.30;99.90
2012;DHT22;1009;51.436;6.972;2024-03-17T00:43:34;7.40;99.90
2012;DHT22;1009;51.436;6.972;2024-03-17T00:46:00;7.40;99.90
2012;DHT22;1009;51.436;6.972;2024-03-17T00:48:27;7.40;99.90
2012;DHT22;1009;51.436;6.972;2024-03-17T00:50:56;7.40;99.90
2012;DHT22;1009;51.436;6.972;2024-03-17T00:53:24;7.40;99.90
2012;DHT22;1009;51.436;6.972;2024-03-17T00:55:52;7.30;99.90
2012;DHT22;1009;51.436;6.972;2024-03-17T00:58:21;7.30;99.90
2012;DHT22;1009;51.436;6.972;2024-03-17T01:00:47;7.30;99.90
2012;DHT22;1009;51.436;6.972;2024-03-17T01:03:15;7.30;99.90
2012;DHT22;1009;51.436;6.972;2024-03-17T01:05:41;7.30;99.90
2012;DHT22;1009;51.436;6.972;2024-03-17T01:08:10;7.30;99.90
2012;DHT22;1009;51.436;6.972;2024-03-17T01:10:40;7.40;99.90
2012;DHT22;1009;51.436;6.972;2024-03-17T01:13:07;7.30;99.90
2012;DHT22;1009;51.436;6.972;2024-03-17T01:15:35;7.30;99.90
2012;DHT22;1009;51.436;6.972;2024-03-17T01:18:02;7.30;99.90
2012;DHT22;1009;51.436;6.972;2024-03-17T01:20:29;7.30;99.90
2012;DHT22;1009;51.436;6.972;2024-03-17T01:22:56;7.30;99.90
2012;DHT22;1009;51.436;6.972;2024-03-17T01:25:22;7.30;99.90
2012;DHT22;1009;51.436;6.972;2024-03-17T01:27:51;7.20;99.90
2012;DHT22;1009;51.436;6.972;2024-03-17T01:30:16;7.30;99.90
2012;DHT22;1009;51.436;6.972;2024-03-17T01:32:46;7.30;99.90
2012;DHT22;1009;51.436;6.972;2024-03-17T01:35:12;7.30;99.90
2012;DHT22;1009;51.436;6.972;2024-03-17T01:37:39;7.30;99.90
2012;DHT22;1009;51.436;6.972;2024-03-17T01:40:06;7.30;99.90
2012;DHT22;1009;51.436;6.972;2024-03-17T01:42:34;7.30;99.90
2012;DHT22;1009;51.436;6.972;2024-03-17T01:45:00;7.20;99.90
2012;DHT22;1009;51.436;6.972;2024-03-17T01:47:27;7.10;99.90
2012;DHT22;1009;51.436;6.972;2024-03-17T01:49:54;7.10;99.90
2012;DHT22;1009;51.436;6.972;2024-03-17T01:52:21;7.10;99.90
2012;DHT22;1009;51.436;6.972;2024-03-17T01:54:48;7.10;99.90
2012;DHT22;1009;51.436;6.972;2024-03-17T01:57:14;7.00;99.90
2012;DHT22;1009;51.436;6.972;2024-03-17T01:59:41;7.00;99.90
2012;DHT22;1009;51.436;6.972;2024-03-17T02:02:07;6.90;99.90
2012;DHT22;1009;51.436;6.972;2024-03-17T02:04:33;6.90;99.90
2012;DHT22;1009;51.436;6.972;2024-03-17T02:07:01;6.90;99.90
2012;DHT22;1009;51.436;6.972;2024-03-17T02:09:27;6.90;99.90
2012;DHT22;1009;51.436;6.972;2024-03-17T02:11:54;6.80;99.90
2012;DHT22;1009;51.436;6.972;2024-03-17T02:14:20;6.80;99.90
2012;DHT22;1009;51.436;6.972;2024-03-17T02:16:47;6.80;99.90
2012;DHT22;1009;51.436;6.972;2024-03-17T02:19:12;6.70;99.90
2012;DHT22;1009;51.436;6.972;2024-03-17T02:21:39;6.70;99.90
2012;DHT22;1009;51.436;6.972;2024-03-17T02:24:08;6.70;99.90
2012;DHT22;1009;51.436;6.972;2024-03-17T02:26:34;6.80;99.90
2012;DHT22;1009;51.436;6.972;2024-03-17T02:29:01;6.80;99.90
2012;DHT22;1009;51.436;6.972;2024-03-17T02:31:27;6.80;99.90
2012;DHT22;1009;51.436;6.972;2024-03-17T02:33:53;6.80;99.90
2012;DHT22;1009;51.436;6.972;2024-03-17T02:36:20;6.80;99.90
2012;DHT22;1009;51.436;6.972;2024-03-17T02:38:46;6.80;99.90
2012;DHT22;1009;51.436;6.972;2024-03-17T02:41:31;6.90;99.90
2012;DHT22;1009;51.436;6.972;2024-03-17T02:43:58;6.90;99.90
2012;DHT22;1009;51.436;6.972;2024-03-17T02:46:25;6.90;99.90
2012;DHT22;1009;51.436;6.972;2024-03-17T02:48:53;6.90;99.90
2012;DHT22;1009;51.436;6.972;2024-03-17T02:51:23;6.90;99.90
2012;DHT22;1009;51.436;6.972;2024-03-17T02:53:50;6.90;99.90
2012;DHT22;1009;51.436;6.972;2024-03-17T02:56:18;6.90;99.90
2012;DHT22;1009;51.436;6.972;2024-03-17T02:58:46;6.90;99.90
2012;DHT22;1009;51.436;6.972;2024-03-17T03:01:14;7.00;99.90
2012;DHT22;1009;51.436;6.972;2024-03-17T03:03:41;6.90;99.90
2012;DHT22;1009;51.436;6.972;2024-03-17T03:06:08;6.90;99.90
2012;DHT22;1009;51.436;6.972;2024-03-17T03:08:37;6.90;99.90
2012;DHT22;1009;51.436;6.972;2024-03-17T03:11:06;6.90;99.90
2012;DHT22;1009;51.436;6.972;2024-03-17T03:13:36;6.90;99.90
2012;DHT22;1009;51.436;6.972;2024-03-17T03:16:05;6.90;99.90
2012;DHT22;1009;51.436;6.972;2024-03-17T03:18:32;6.90;99.90
2012;DHT22;1009;51.436;6.972;2024-03-17T03:20:59;6.90;99.90
2012;DHT22;1009;51.436;6.972;2024-03-17T03:23:25;6.90;99.90
2012;DHT22;1009;51.436;6.972;2024-03-17T03:25:55;6.80;99.90
2012;DHT22;1009;51.436;6.972;2024-03-17T03:28:23;6.80;99.90
2012;DHT22;1009;51.436;6.972;2024-03-17T03:30:49;6.80;99.90
2012;DHT22;1009;51.436;6.972;2024-03-17T03:33:18;6.80;99.90
2012;DHT22;1009;51.436;6.972;2024-03-17T03:35:44;6.80;99.90
2012;DHT22;1009;51.436;6.972;2024-03-17T03:38:12;6.80;99.90
2012;DHT22;1009;51.436;6.972;2024-03-17T03:40:40;6.80;99.90
2012;DHT22;1009;51.436;6.972;2024-03-17T03:43:07;6.80;99.90
2012;DHT22;1009;51.436;6.972;2024-03-17T03:45:34;6.70;99.90
2012;DHT22;1009;51.436;6.972;2024-03-17T03:48:01;6.80;99.90
2012;DHT22;1009;51.436;6.972;2024-03-17T03:50:30;6.70;99.90
2012;DHT22;1009;51.436;6.972;2024-03-17T03:52:57;6.70;99.90
2012;DHT22;1009;51.436;6.972;2024-03-17T03:55:24;6.70;99.90
2012;DHT22;1009;51.436;6.972;2024-03-17T03:57:51;6.70;99.90
2012;DHT22;1009;51.436;6.972;2024-03-17T04:00:18;6.70;99.90
2012;DHT22;1009;51.436;6.972;2024-03-17T04:02:48;6.70;99.90
2012;DHT22;1009;51.436;6.972;2024-03-17T04:05:15;6.70;99.90
2012;DHT22;1009;51.436;6.972;2024-03-17T04:07:45;6.70;99.90
2012;DHT22;1009;51.436;6.972;2024-03-17T04:10:12;6.70;99.90
2012;DHT22;1009;51.436;6.972;2024-03-17T04:12:39;6.70;99.90
2012;DHT22;1009;51.436;6.972;2024-03-17T04:15:07;6.70;99.90
2012;DHT22;1009;51.436;6.972;2024-03-17T04:17:36;6.70;99.90
2012;DHT22;1009;51.436;6.972;2024-03-17T04:20:03;6.80;99.90
2012;DHT22;1009;51.436;6.972;2024-03-17T04:22:30;6.70;99.90
2012;DHT22;1009;51.436;6.972;2024-03-17T04:24:58;6.70;99.90
2012;DHT22;1009;51.436;6.972;2024-03-17T04:27:25;6.80;99.90
2012;DHT22;1009;51.436;6.972;2024-03-17T04:29:54;6.80;99.90
2012;DHT22;1009;51.436;6.972;2024-03-17T04:32:21;6.80;99.90
2012;DHT22;1009;51.436;6.972;2024-03-17T04:34:48;6.80;99.90
2012;DHT22;1009;51.436;6.972;2024-03-17T04:37:15;6.80;99.90
2012;DHT22;1009;51.436;6.972;2024-03-17T04:39:43;6.80;99.90
2012;DHT22;1009;51.436;6.972;2024-03-17T04:42:12;6.90;99.90
2012;DHT22;1009;51.436;6.972;2024-03-17T04:44:39;6.90;99.90
2012;DHT22;1009;51.436;6.972;2024-03-17T04:47:07;6.90;99.90
2012;DHT22;1009;51.436;6.972;2024-03-17T04:49:35;7.00;99.90
2012;DHT22;1009;51.436;6.972;2024-03-17T04:52:02;7.00;99.90
2012;DHT22;1009;51.436;6.972;2024-03-17T04:54:30;7.00;99.90
2012;DHT22;1009;51.436;6.972;2024-03-17T04:56:57;7.00;99.90
2012;DHT22;1009;51.436;6.972;2024-03-17T04:59:25;7.10;99.90
2012;DHT22;1009;51.436;6.972;2024-03-17T05:01:53;7.10;99.90
2012;DHT22;1009;51.436;6.972;2024-03-17T05:04:20;7.10;99.90
2012;DHT22;1009;51.436;6.972;2024-03-17T05:06:48;7.10;99.90
2012;DHT22;1009;51.436;6.972;2024-03-17T05:09:15;7.10;99.90
2012;DHT22;1009;51.436;6.972;2024-03-17T05:11:42;7.20;99.90
2012;DHT22;1009;51.436;6.972;2024-03-17T05:14:09;7.20;99.90
2012;DHT22;1009;51.436;6.972;2024-03-17T05:16:37;7.20;99.90
2012;DHT22;1009;51.436;6.972;2024-03-17T05:19:04;7.20;99.90
2012;DHT22;1009;51.436;6.972;2024-03-17T05:21:31;7.20;99.90
2012;DHT22;1009;51.436;6.972;2024-03-17T05:24:00;7.20;99.90
2012;DHT22;1009;51.436;6.972;2024-03-17T05:26:27;7.20;99.90
2012;DHT22;1009;51.436;6.972;2024-03-17T05:28:55;7.20;99.90
2012;DHT22;1009;51.436;6.972;2024-03-17T05:31:23;7.20;99.90
2012;DHT22;1009;51.436;6.972;2024-03-17T05:33:51;7.20;99.90
2012;DHT22;1009;51.436;6.972;2024-03-17T05:36:18;7.20;99.90
2012;DHT22;1009;51.436;6.972;2024-03-17T05:38:46;7.20;99.90
2012;DHT22;1009;51.436;6.972;2024-03-17T05:41:13;7.20;99.90
2012;DHT22;1009;51.436;6.972;2024-03-17T05:43:40;7.20;99.90
2012;DHT22;1009;51.436;6.972;2024-03-17T05:46:10;7.20;99.90
2012;DHT22;1009;51.436;6.972;2024-03-17T05:48:38;7.20;99.90
2012;DHT22;1009;51.436;6.972;2024-03-17T05:51:07;7.20;99.90
2012;DHT22;1009;51.436;6.972;2024-03-17T05:53:35;7.20;99.90
2012;DHT22;1009;51.436;6.972;2024-03-17T05:56:03;7.20;99.90
2012;DHT22;1009;51.436;6.972;2024-03-17T05:58:30;7.20;99.90
2012;DHT22;1009;51.436;6.972;2024-03-17T06:00:57;7.30;99.90
2012;DHT22;1009;51.436;6.972;2024-03-17T06:03:24;7.30;99.90
2012;DHT22;1009;51.436;6.972;2024-03-17T06:05:51;7.30;99.90
2012;DHT22;1009;51.436;6.972;2024-03-17T06:08:20;7.40;99.90
2012;DHT22;1009;51.436;6.972;2024-03-17T06:10:49;7.30;99.90
2012;DHT22;1009;51.436;6.972;2024-03-17T06:13:16;7.30;99.90
2012;DHT22;1009;51.436;6.972;2024-03-17T06:15:44;7.40;99.90
2012;DHT22;1009;51.436;6.972;2024-03-17T06:18:13;7.40;99.90
2012;DHT22;1009;51.436;6.972;2024-03-17T06:20:40;7.50;99.90
2012;DHT22;1009;51.436;6.972;2024-03-17T06:23:09;7.60;99.90
2012;DHT22;1009;51.436;6.972;2024-03-17T06:25:40;7.50;99.90
2012;DHT22;1009;51.436;6.972;2024-03-17T06:28:07;7.60;99.90
2012;DHT22;1009;51.436;6.972;2024-03-17T06:30:34;7.70;99.90
2012;DHT22;1009;51.436;6.972;2024-03-17T06:33:01;7.70;99.90
2012;DHT22;1009;51.436;6.972;2024-03-17T06:35:27;7.70;99.90
2012;DHT22;1009;51.436;6.972;2024-03-17T06:37:59;7.80;99.90
2012;DHT22;1009;51.436;6.972;2024-03-17T06:40:25;7.80;99.90
2012;DHT22;1009;51.436;6.972;2024-03-17T06:42:54;7.80;99.90
2012;DHT22;1009;51.436;6.972;2024-03-17T06:45:21;7.80;99.90
2012;DHT22;1009;51.436;6.972;2024-03-17T06:47:48;7.90;99.90
2012;DHT22;1009;51.436;6.972;2024-03-17T06:50:15;7.90;99.90
2012;DHT22;1009;51.436;6.972;2024-03-17T06:52:42;8.00;99.90
2012;DHT22;1009;51.436;6.972;2024-03-17T06:55:08;8.10;99.90
2012;DHT22;1009;51.436;6.972;2024-03-17T06:57:38;8.20;99.90
2012;DHT22;1009;51.436;6.972;2024-03-17T07:00:07;8.30;99.90
2012;DHT22;1009;51.436;6.972;2024-03-17T07:02:39;8.40;99.90
2012;DHT22;1009;51.436;6.972;2024-03-17T07:05:07;8.60;99.90
2012;DHT22;1009;51.436;6.972;2024-03-17T07:07:34;8.70;99.90
2012;DHT22;1009;51.436;6.972;2024-03-17T07:10:00;8.80;99.90
2012;DHT22;1009;51.436;6.972;2024-03-17T07:12:30;9.00;99.90
2012;DHT22;1009;51.436;6.972;2024-03-17T07:14:57;9.00;99.90
2012;DHT22;1009;51.436;6.972;2024-03-17T07:17:25;9.10;99.90
2012;DHT22;1009;51.436;6.972;2024-03-17T07:19:52;9.10;99.90
2012;DHT22;1009;51.436;6.972;2024-03-17T07:22:18;9.30;99.90
2012;DHT22;1009;51.436;6.972;2024-03-17T07:24:45;9.40;99.90
2012;DHT22;1009;51.436;6.972;2024-03-17T07:27:12;9.50;99.90
2012;DHT22;1009;51.436;6.972;2024-03-17T07:29:40;9.50;99.90
2012;DHT22;1009;51.436;6.972;2024-03-17T07:32:06;9.60;99.90
2012;DHT22;1009;51.436;6.972;2024-03-17T07:34:35;9.70;99.90
2012;DHT22;1009;51.436;6.972;2024-03-17T07:37:01;9.60;99.90
2012;DHT22;1009;51.436;6.972;2024-03-17T07:39:28;9.60;99.90
2012;DHT22;1009;51.436;6.972;2024-03-17T07:41:57;9.60;99.90
2012;DHT22;1009;51.436;6.972;2024-03-17T07:44:25;9.60;99.90
2012;DHT22;1009;51.436;6.972;2024-03-17T07:46:57;9.60;99.90
2012;DHT22;1009;51.436;6.972;2024-03-17T07:49:29;9.70;99.90
2012;DHT22;1009;51.436;6.972;2024-03-17T07:51:57;9.70;99.90
2012;DHT22;1009;51.436;6.972;2024-03-17T07:54:24;9.80;99.90
2012;DHT22;1009;51.436;6.972;2024-03-17T07:56:51;9.80;99.90
2012;DHT22;1009;51.436;6.972;2024-03-17T07:59:18;10.00;99.90
2012;DHT22;1009;51.436;6.972;2024-03-17T08:01:45;10.00;99.90
2012;DHT22;1009;51.436;6.972;2024-03-17T08:04:12;9.90;99.90
2012;DHT22;1009;51.436;6.972;2024-03-17T08:06:39;10.00;99.90
2012;DHT22;1009;51.436;6.972;2024-03-17T08:09:07;10.10;99.90
2012;DHT22;1009;51.436;6.972;2024-03-17T08:11:34;10.10;99.90
2012;DHT22;1009;51.436;6.972;2024-03-17T08:14:01;10.00;99.90
2012;DHT22;1009;51.436;6.972;2024-03-17T08:16:28;9.80;99.90
2012;DHT22;1009;51.436;6.972;2024-03-17T08:18:55;9.80;99.90
2012;DHT22;1009;51.436;6.972;2024-03-17T08:21:22;9.70;99.90
2012;DHT22;1009;51.436;6.972;2024-03-17T08:23:49;9.80;99.90
2012;DHT22;1009;51.436;6.972;2024-03-17T08:26:18;9.90;99.90
2012;DHT22;1009;51.436;6.972;2024-03-17T08:28:45;10.00;99.90
2012;DHT22;1009;51.436;6.972;2024-03-17T08:31:12;10.10;99.90
2012;DHT22;1009;51.436;6.972;2024-03-17T08:33:41;10.40;99.90
2012;DHT22;1009;51.436;6.972;2024-03-17T08:36:08;10.60;99.90
2012;DHT22;1009;51.436;6.972;2024-03-17T08:38:36;10.90;99.90
2012;DHT22;1009;51.436;6.972;2024-03-17T08:41:05;11.10;99.90
2012;DHT22;1009;51.436;6.972;2024-03-17T08:43:33;11.20;99.90
2012;DHT22;1009;51.436;6.972;2024-03-17T08:46:02;11.20;99.90
2012;DHT22;1009;51.436;6.972;2024-03-17T08:48:29;11.10;99.90
2012;DHT22;1009;51.436;6.972;2024-03-17T08:50:58;11.20;99.90
2012;DHT22;1009;51.436;6.972;2024-03-17T08:53:25;11.20;99.90
2012;DHT22;1009;51.436;6.972;2024-03-17T08:55:52;11.10;99.90
2012;DHT22;1009;51.436;6.972;2024-03-17T08:58:19;11.10;99.90
2012;DHT22;1009;51.436;6.972;2024-03-17T09:00:48;11.20;99.90
2012;DHT22;1009;51.436;6.972;2024-03-17T09:03:14;11.20;99.90
2012;DHT22;1009;51.436;6.972;2024-03-17T09:05:43;11.30;99.90
2012;DHT22;1009;51.436;6.972;2024-03-17T09:08:15;11.40;99.90
2012;DHT22;1009;51.436;6.972;2024-03-17T09:10:43;11.60;99.90
2012;DHT22;1009;51.436;6.972;2024-03-17T09:13:13;11.60;99.90
2012;DHT22;1009;51.436;6.972;2024-03-17T09:15:40;11.70;99.90
2012;DHT22;1009;51.436;6.972;2024-03-17T09:18:08;11.60;99.90
2012;DHT22;1009;51.436;6.972;2024-03-17T09:20:34;11.70;99.90
2012;DHT22;1009;51.436;6.972;2024-03-17T09:23:01;11.70;99.90
2012;DHT22;1009;51.436;6.972;2024-03-17T09:25:28;11.70;99.90
2012;DHT22;1009;51.436;6.972;2024-03-17T09:27:55;11.70;99.90
2012;DHT22;1009;51.436;6.972;2024-03-17T09:30:22;11.60;99.90
2012;DHT22;1009;51.436;6.972;2024-03-17T09:32:48;11.50;99.90
2012;DHT22;1009;51.436;6.972;2024-03-17T09:35:17;11.50;99.90
2012;DHT22;1009;51.436;6.972;2024-03-17T09:37:43;11.40;99.90
2012;DHT22;1009;51.436;6.972;2024-03-17T09:40:14;11.50;99.90
2012;DHT22;1009;51.436;6.972;2024-03-17T09:42:41;11.60;99.90
2012;DHT22;1009;51.436;6.972;2024-03-17T09:45:09;11.70;99.90
2012;DHT22;1009;51.436;6.972;2024-03-17T09:47:36;11.80;99.90
2012;DHT22;1009;51.436;6.972;2024-03-17T09:50:05;11.90;99.90
2012;DHT22;1009;51.436;6.972;2024-03-17T09:52:37;11.90;99.90
2012;DHT22;1009;51.436;6.972;2024-03-17T09:55:09;11.90;99.90
2012;DHT22;1009;51.436;6.972;2024-03-17T09:57:36;12.10;99.90
2012;DHT22;1009;51.436;6.972;2024-03-17T10:00:06;12.10;99.90
2012;DHT22;1009;51.436;6.972;2024-03-17T10:02:42;12.10;99.90
2012;DHT22;1009;51.436;6.972;2024-03-17T10:05:18;12.20;99.90
2012;DHT22;1009;51.436;6.972;2024-03-17T10:07:47;12.30;99.90
2012;DHT22;1009;51.436;6.972;2024-03-17T10:10:15;12.20;99.90
2012;DHT22;1009;51.436;6.972;2024-03-17T10:12:43;12.20;99.90
2012;DHT22;1009;51.436;6.972;2024-03-17T10:15:11;12.20;99.90
2012;DHT22;1009;51.436;6.972;2024-03-17T10:17:38;12.00;99.90
2012;DHT22;1009;51.436;6.972;2024-03-17T10:20:15;12.00;99.90
2012;DHT22;1009;51.436;6.972;2024-03-17T10:23:03;12.20;99.90
2012;DHT22;1009;51.436;6.972;2024-03-17T10:25:33;12.30;99.90
2012;DHT22;1009;51.436;6.972;2024-03-17T10:28:01;12.20;99.90
2012;DHT22;1009;51.436;6.972;2024-03-17T10:30:28;12.30;99.90
2012;DHT22;1009;51.436;6.972;2024-03-17T10:32:57;12.40;99.90
2012;DHT22;1009;51.436;6.972;2024-03-17T10:35:31;12.40;99.90
2012;DHT22;1009;51.436;6.972;2024-03-17T10:37:59;12.40;99.90
2012;DHT22;1009;51.436;6.972;2024-03-17T10:40:29;12.60;99.90
2012;DHT22;1009;51.436;6.972;2024-03-17T10:42:57;12.70;99.90
2012;DHT22;1009;51.436;6.972;2024-03-17T10:45:25;12.80;99.90
2012;DHT22;1009;51.436;6.972;2024-03-17T10:47:52;13.00;99.90
2012;DHT22;1009;51.436;6.972;2024-03-17T10:50:21;13.00;99.90
2012;DHT22;1009;51.436;6.972;2024-03-17T10:52:50;13.00;99.90
2012;DHT22;1009;51.436;6.972;2024-03-17T10:55:22;13.00;99.90
2012;DHT22;1009;51.436;6.972;2024-03-17T10:57:51;13.00;99.90
2012;DHT22;1009;51.436;6.972;2024-03-17T11:00:20;13.00;99.90
2012;DHT22;1009;51.436;6.972;2024-03-17T11:02:49;13.00;99.90
2012;DHT22;1009;51.436;6.972;2024-03-17T11:05:19;13.10;99.90
2012;DHT22;1009;51.436;6.972;2024-03-17T11:07:47;13.10;99.90
2012;DHT22;1009;51.436;6.972;2024-03-17T11:10:16;13.10;99.90
2012;DHT22;1009;51.436;6.972;2024-03-17T11:12:46;13.00;99.90
2012;DHT22;1009;51.436;6.972;2024-03-17T11:15:37;13.00;99.90
2012;DHT22;1009;51.436;6.972;2024-03-17T11:18:34;13.10;99.90
2012;DHT22;1009;51.436;6.972;2024-03-17T11:21:02;13.00;99.90
2012;DHT22;1009;51.436;6.972;2024-03-17T11:23:34;13.00;99.90
2012;DHT22;1009;51.436;6.972;2024-03-17T11:26:04;12.90;99.90
2012;DHT22;1009;51.436;6.972;2024-03-17T11:28:47;13.00;99.90
2012;DHT22;1009;51.436;6.972;2024-03-17T11:31:34;13.00;99.90
2012;DHT22;1009;51.436;6.972;2024-03-17T11:34:01;12.90;99.90
2012;DHT22;1009;51.436;6.972;2024-03-17T11:36:36;13.00;99.90
2012;DHT22;1009;51.436;6.972;2024-03-17T11:39:05;13.10;99.90
2012;DHT22;1009;51.436;6.972;2024-03-17T11:41:36;13.10;99.90
2012;DHT22;1009;51.436;6.972;2024-03-17T11:44:14;13.20;99.90
2012;DHT22;1009;51.436;6.972;2024-03-17T11:46:43;13.30;99.90
2012;DHT22;1009;51.436;6.972;2024-03-17T11:49:18;13.40;99.90
2012;DHT22;1009;51.436;6.972;2024-03-17T11:51:44;13.50;99.90
2012;DHT22;1009;51.436;6.972;2024-03-17T11:54:14;13.60;99.90
2012;DHT22;1009;51.436;6.972;2024-03-17T11:56:48;13.60;99.90
2012;DHT22;1009;51.436;6.972;2024-03-17T11:59:15;13.80;99.90
2012;DHT22;1009;51.436;6.972;2024-03-17T12:01:45;14.10;99.90
2012;DHT22;1009;51.436;6.972;2024-03-17T12:04:13;14.30;99.90
2012;DHT22;1009;51.436;6.972;2024-03-17T12:06:41;14.40;99.90
2012;DHT22;1009;51.436;6.972;2024-03-17T12:09:19;14.40;99.90
2012;DHT22;1009;51.436;6.972;2024-03-17T12:11:46;14.40;99.90
2012;DHT22;1009;51.436;6.972;2024-03-17T12:14:15;14.60;99.90
2012;DHT22;1009;51.436;6.972;2024-03-17T12:16:50;14.70;99.90
2012;DHT22;1009;51.436;6.972;2024-03-17T12:19:18;14.80;99.90
2012;DHT22;1009;51.436;6.972;2024-03-17T12:21:45;14.90;99.90
2012;DHT22;1009;51.436;6.972;2024-03-17T12:24:17;14.80;99.90
2012;DHT22;1009;51.436;6.972;2024-03-17T12:26:44;14.70;99.90
2012;DHT22;1009;51.436;6.972;2024-03-17T12:29:25;14.70;99.90
2012;DHT22;1009;51.436;6.972;2024-03-17T12:31:55;14.60;99.90
2012;DHT22;1009;51.436;6.972;2024-03-17T12:34:24;14.70;99.90
2012;DHT22;1009;51.436;6.972;2024-03-17T12:36:52;14.90;99.90
2012;DHT22;1009;51.436;6.972;2024-03-17T12:39:21;14.80;99.90
2012;DHT22;1009;51.436;6.972;2024-03-17T12:42:01;14.60;99.90
2012;DHT22;1009;51.436;6.972;2024-03-17T12:44:29;14.70;99.90
2012;DHT22;1009;51.436;6.972;2024-03-17T12:46:57;15.00;99.90
2012;DHT22;1009;51.436;6.972;2024-03-17T12:49:26;15.20;99.90
2012;DHT22;1009;51.436;6.972;2024-03-17T12:51:52;15.20;99.90
2012;DHT22;1009;51.436;6.972;2024-03-17T12:54:21;15.40;99.90
2012;DHT22;1009;51.436;6.972;2024-03-17T12:56:49;15.50;99.90
2012;DHT22;1009;51.436;6.972;2024-03-17T12:59:40;15.60;99.90
2012;DHT22;1009;51.436;6.972;2024-03-17T13:02:34;15.60;99.90
2012;DHT22;1009;51.436;6.972;2024-03-17T13:05:10;15.60;99.90
2012;DHT22;1009;51.436;6.972;2024-03-17T13:07:39;15.60;99.90
2012;DHT22;1009;51.436;6.972;2024-03-17T13:10:07;15.90;99.90
2012;DHT22;1009;51.436;6.972;2024-03-17T13:12:34;16.20;99.90
2012;DHT22;1009;51.436;6.972;2024-03-17T13:15:00;16.40;99.90
2012;DHT22;1009;51.436;6.972;2024-03-17T13:17:27;16.30;99.90
2012;DHT22;1009;51.436;6.972;2024-03-17T13:19:57;16.20;99.90
2012;DHT22;1009;51.436;6.972;2024-03-17T13:22:24;16.30;99.90
2012;DHT22;1009;51.436;6.972;2024-03-17T13:24:51;16.30;99.90
2012;DHT22;1009;51.436;6.972;2024-03-17T13:27:18;16.10;99.90
2012;DHT22;1009;51.436;6.972;2024-03-17T13:29:47;15.90;99.90
2012;DHT22;1009;51.436;6.972;2024-03-17T13:32:15;15.80;99.90
2012;DHT22;1009;51.436;6.972;2024-03-17T13:34:43;15.90;99.90
2012;DHT22;1009;51.436;6.972;2024-03-17T13:37:11;15.90;99.90
2012;DHT22;1009;51.436;6.972;2024-03-17T13:39:38;15.70;99.90
2012;DHT22;1009;51.436;6.972;2024-03-17T13:42:04;15.70;99.90
2012;DHT22;1009;51.436;6.972;2024-03-17T13:44:31;15.80;99.90
2012;DHT22;1009;51.436;6.972;2024-03-17T13:46:59;15.80;99.90
2012;DHT22;1009;51.436;6.972;2024-03-17T13:49:27;15.70;99.90
2012;DHT22;1009;51.436;6.972;2024-03-17T13:51:54;15.60;99.90
2012;DHT22;1009;51.436;6.972;2024-03-17T13:54:22;15.50;99.90
2012;DHT22;1009;51.436;6.972;2024-03-17T13:56:49;15.60;99.90
2012;DHT22;1009;51.436;6.972;2024-03-17T13:59:16;15.50;99.90
2012;DHT22;1009;51.436;6.972;2024-03-17T14:01:43;15.50;99.90
2012;DHT22;1009;51.436;6.972;2024-03-17T14:04:13;15.30;99.90
2012;DHT22;1009;51.436;6.972;2024-03-17T14:06:41;15.30;99.90
2012;DHT22;1009;51.436;6.972;2024-03-17T14:09:08;15.30;99.90
2012;DHT22;1009;51.436;6.972;2024-03-17T14:11:37;15.20;99.90
2012;DHT22;1009;51.436;6.972;2024-03-17T14:14:04;15.10;99.90
2012;DHT22;1009;51.436;6.972;2024-03-17T14:16:31;15.20;99.90
2012;DHT22;1009;51.436;6.972;2024-03-17T14:18:58;15.10;99.90
2012;DHT22;1009;51.436;6.972;2024-03-17T14:21:25;15.00;99.90
2012;DHT22;1009;51.436;6.972;2024-03-17T14:23:52;15.00;99.90
2012;DHT22;1009;51.436;6.972;2024-03-17T14:26:19;15.00;99.90
2012;DHT22;1009;51.436;6.972;2024-03-17T14:28:48;15.10;99.90
2012;DHT22;1009;51.436;6.972;2024-03-17T14:31:15;15.20;99.90
2012;DHT22;1009;51.436;6.972;2024-03-17T14:33:42;15.30;99.90
2012;DHT22;1009;51.436;6.972;2024-03-17T14:36:09;15.10;99.90
2012;DHT22;1009;51.436;6.972;2024-03-17T14:38:36;15.10;99.90
2012;DHT22;1009;51.436;6.972;2024-03-17T14:41:03;15.00;99.90
2012;DHT22;1009;51.436;6.972;2024-03-17T14:43:30;15.00;99.90
2012;DHT22;1009;51.436;6.972;2024-03-17T14:45:57;14.90;99.90
2012;DHT22;1009;51.436;6.972;2024-03-17T14:48:24;14.90;99.90
2012;DHT22;1009;51.436;6.972;2024-03-17T14:50:50;14.80;99.90
2012;DHT22;1009;51.436;6.972;2024-03-17T14:53:17;14.90;99.90
2012;DHT22;1009;51.436;6.972;2024-03-17T14:55:45;14.90;99.90
2012;DHT22;1009;51.436;6.972;2024-03-17T14:58:12;14.90;99.90
2012;DHT22;1009;51.436;6.972;2024-03-17T15:00:40;14.90;99.90
2012;DHT22;1009;51.436;6.972;2024-03-17T15:03:09;14.90;99.90
2012;DHT22;1009;51.436;6.972;2024-03-17T15:05:35;15.00;99.90
2012;DHT22;1009;51.436;6.972;2024-03-17T15:08:02;14.90;99.90
2012;DHT22;1009;51.436;6.972;2024-03-17T15:10:29;14.90;99.90
2012;DHT22;1009;51.436;6.972;2024-03-17T15:12:56;15.00;99.90
2012;DHT22;1009;51.436;6.972;2024-03-17T15:15:23;14.90;99.90
2012;DHT22;1009;51.436;6.972;2024-03-17T15:17:49;14.90;99.90
2012;DHT22;1009;51.436;6.972;2024-03-17T15:20:17;14.90;99.90
2012;DHT22;1009;51.436;6.972;2024-03-17T15:22:48;14.90;99.90
2012;DHT22;1009;51.436;6.972;2024-03-17T15:25:16;14.80;99.90
2012;DHT22;1009;51.436;6.972;2024-03-17T15:27:43;14.80;99.90
2012;DHT22;1009;51.436;6.972;2024-03-17T15:30:12;14.80;99.90
2012;DHT22;1009;51.436;6.972;2024-03-17T15:32:44;14.80;99.90
2012;DHT22;1009;51.436;6.972;2024-03-17T15:35:11;14.90;99.90
2012;DHT22;1009;51.436;6.972;2024-03-17T15:37:40;15.00;99.90
2012;DHT22;1009;51.436;6.972;2024-03-17T15:40:07;15.10;99.90
2012;DHT22;1009;51.436;6.972;2024-03-17T15:42:42;15.10;99.90
2012;DHT22;1009;51.436;6.972;2024-03-17T15:45:09;15.10;99.90
2012;DHT22;1009;51.436;6.972;2024-03-17T15:47:36;15.10;99.90
2012;DHT22;1009;51.436;6.972;2024-03-17T15:50:03;15.10;99.90
2012;DHT22;1009;51.436;6.972;2024-03-17T15:52:30;15.10;99.90
2012;DHT22;1009;51.436;6.972;2024-03-17T15:54:58;15.20;99.90
2012;DHT22;1009;51.436;6.972;2024-03-17T15:57:25;15.10;99.90
2012;DHT22;1009;51.436;6.972;2024-03-17T15:59:52;15.00;99.90
2012;DHT22;1009;51.436;6.972;2024-03-17T16:02:19;15.00;99.90
2012;DHT22;1009;51.436;6.972;2024-03-17T16:04:49;15.00;99.90
2012;DHT22;1009;51.436;6.972;2024-03-17T16:07:16;14.90;99.90
2012;DHT22;1009;51.436;6.972;2024-03-17T16:09:43;14.90;99.90
2012;DHT22;1009;51.436;6.972;2024-03-17T16:12:11;14.90;99.90
2012;DHT22;1009;51.436;6.972;2024-03-17T16:14:41;14.70;99.90
2012;DHT22;1009;51.436;6.972;2024-03-17T16:17:09;14.70;99.90